• Join FlightAware (Why Join?)
  • Login
  • US Flag 
02:33AM EST


 

Airport Tracker/Info


-or-


 

Live Flight TrackerFlight Track Log ✈ FSR411 ✈ 13-Aug-2013 ✈ KCMI - KDET

Flight Track Log - Related Links

Times and Time Zones

All times are in EDT time to prevent confusion due to time zone crossing. See the FSR411 flight status page for this flight to view local times or setup timezone preferences in your user account.

Time Position Orientation Groundspeed Altitude Reporting Facility
EDT Latitude Longitude Course Direction KTS MPH feet Rate Location/Type
07:34AM 40.0969 -88.2225 65° Northeast 275 316 4,100  Level Chicago Center
07:35AM 40.1225 -88.1347 69° East 269 310 6,900 3,360 Climbing Chicago Center
07:36AM 40.1597 -88.0147 68° East 290 334 11,000 3,540 Climbing Chicago Center
07:37AM 40.1953 -87.8981 68° East 326 375 14,200 2,940 Climbing Chicago Center
07:38AM 40.2670 -87.5158 65° Northeast  Level FlightAware Approximate
07:38AM 40.2356 -87.7644 68° East 379 436 17,100  Level Chicago Center
07:39AM 40.3042 -87.4098 65° Northeast  Level FlightAware Approximate
07:39AM 40.2794 -87.6206 68° East 415 478 20,100  Level Chicago Center
07:40AM 40.3261 -87.4686 68° East 444 511 22,600 1,380 Climbing Chicago Center
07:41AM 40.3739 -87.3067 69° East 466 536 23,000 180 Climbing Chicago Center
07:42AM 40.4217 -87.1472 68° East 470 541 23,000  Level Chicago Center
07:43AM 40.4681 -86.9908 69° East 462 532 23,000  Level Chicago Center
07:44AM 40.5236 -86.8031 69° East 461 531 23,000  Level Chicago Center
07:45AM 40.5683 -86.6439 70° East 463 533 23,000  Level Chicago Center
07:46AM 40.6144 -86.4861 69° East 463 533 23,000  Level Chicago Center
07:47AM 40.6611 -86.3250 69° East 468 539 23,000  Level Chicago Center
07:48AM 40.7075 -86.1647 69° East 466 536 23,000  Level Chicago Center
07:49AM 40.7533 -86.0039 69° East 468 539 23,000  Level Chicago Center
07:50AM 40.7978 -85.8447 70° East 466 536 23,000  Level Chicago Center
07:51AM 40.8456 -85.6867 68° East 467 537 23,000  Level Chicago Center
07:52AM 40.9033 -85.4978 68° East 468 539 23,000  Level Chicago Center
07:53AM 40.9511 -85.3386 68° East 469 540 23,000  Level Chicago Center
07:54AM 41.0003 -85.1747 68° East 481 554 23,000  Level Chicago Center
07:55AM 41.0494 -85.0131 68° East 479 551 23,000 -300 Level Chicago Center
07:56AM 41.0975 -84.8528 68° East 475 547 22,400 -840 Descending Chicago Center
07:57AM 41.1447 -84.6931 69° East 471 542 21,300 -1,140 Descending Chicago Center
07:58AM 41.1997 -84.5092 68° East 455 524 20,100 -1,560 Descending Chicago Center
07:59AM 41.2458 -84.3542 68° East 454 522 18,100 -1,740 Descending Chicago Center
08:00AM 41.2883 -84.2047 69° East 440 506 16,500 -1,560 Descending Chicago Center
08:01AM 41.3308 -84.0597 69° East 426 490 15,000 -1,440 Descending Chicago Center
08:02AM 41.3722 -83.9158 69° East 420 483 13,600 -1,560 Descending Chicago Center
08:03AM 41.4064 -83.7919 70° East 420 483 12,300 -1,560 Descending Cleveland Center
08:04AM 41.4456 -83.6553 69° East 400 460 11,000 -1,140 Descending Cleveland Center
08:05AM 41.4903 -83.5356 63° Northeast 384 442 10,100 -540 Descending Cleveland Center
08:06AM 41.5414 -83.4131 61° Northeast 372 428 10,000 -60 Descending Cleveland Center
08:07AM 41.5792 -83.3175 62° Northeast 379 436 10,000  Level Cleveland Center
08:08AM 41.6411 -83.1617 62° Northeast 316 364 10,000 -180 Level Cleveland Center
08:09AM 41.6742 -83.0767 62° Northeast 327 376 9,600 -1,020 Descending Cleveland Center
08:10AM 41.7161 -82.9700 62° Northeast 283 326 8,100 -840 Descending Cleveland Center
08:11AM 41.7492 -82.8822 63° Northeast 290 334 8,000 -540 Descending Cleveland Center
08:12AM 41.8092 -82.8033 44° Northeast 274 315 7,100 -480 Descending Cleveland Center
08:13AM 41.8883 -82.8061 359° North 265 305 7,000 -720 Descending Cleveland Center
08:14AM 41.9611 -82.8172 354° North 263 303 5,700 -1,620 Descending Cleveland Center
08:15AM 42.0319 -82.8225 357° North 249 287 3,800 -1,320 Descending Cleveland Center
08:16AM 42.1044 -82.8361 352° North 247 284 3,000 -480 Descending Cleveland Center
08:17AM 42.1567 -82.8436 354° North 257 296 3,000  Level Cleveland Center
08:18AM 42.2272 -82.8544 354° North 254 292 3,000  Level Cleveland Center
08:19AM 42.2828 -82.8872 336° Northwest 183 211 3,000 -300 Level Cleveland Center
08:20AM 42.3339 -82.9369 324° Northwest 174 200 2,400 -540 Descending Cleveland Center
08:21AM 42.3647 -82.9633 328° Northwest 105 121 1,700 -660 Descending Cleveland Center
08:22AM 42.3869 -82.9897 319° Northwest 109 125 1,100 -540 Descending Cleveland Center
08:23AM 42.4033 -83.0042 327° Northwest 111 128 900 -300 Descending Cleveland Center